AFL3107 LFKF-URSS
Flight info
| Callsign | AFL3107 |
|---|---|
| Flight time | N/A |
| Altitude | 35000 |
| Route | IBROS DCT TINIX DCT KATTI DCT MOJ DCT NISVA Q13 UDROS UM859 RUVOM UN743 ODIRA/K0839F350 G487 DIRUN DIRUN1K |
| Aircraft | B738/M-SDE2E3FGHIRWXY/LB1 |
Departure
| Time | 2026-04-17 16:42 |
|---|---|
| Airport | Figari Sud-Corse Airport (LFKF) |
Arrival
| Time | N/A |
|---|---|
| Airport | Sochi International Airport (URSS) |
| Time | Latitude | Longitude | Altitude | Speed | Heading |
|---|---|---|---|---|---|
| 2026-04-17 16:08 | 41.49969 | 9.09791 | 70 ft | 0 kts | 137° |
| 2026-04-17 16:32 | 41.49974 | 9.09785 | 70 ft | 4 kts | 140° |
| 2026-04-17 16:32 | 41.49994 | 9.09767 | 61 ft | 4 kts | 159° |
| 2026-04-17 16:32 | 41.50017 | 9.09760 | 60 ft | 4 kts | 193° |
| 2026-04-17 16:33 | 41.50031 | 9.09769 | 67 ft | 0 kts | 228° |
| 2026-04-17 16:35 | 41.50031 | 9.09768 | 67 ft | 1 kts | 227° |
| 2026-04-17 16:36 | 41.50023 | 9.09770 | 60 ft | 1 kts | 147° |
| 2026-04-17 16:36 | 41.50029 | 9.09782 | 63 ft | 2 kts | 38° |
| 2026-04-17 16:36 | 41.50049 | 9.09798 | 63 ft | 4 kts | 31° |
| 2026-04-17 16:36 | 41.50082 | 9.09809 | 67 ft | 6 kts | 356° |
| 2026-04-17 16:37 | 41.50128 | 9.09777 | 70 ft | 8 kts | 319° |
| 2026-04-17 16:37 | 41.50174 | 9.09721 | 70 ft | 11 kts | 318° |
| 2026-04-17 16:37 | 41.50167 | 9.09610 | 67 ft | 16 kts | 229° |
| 2026-04-17 16:37 | 41.50089 | 9.09497 | 67 ft | 18 kts | 227° |
| 2026-04-17 16:38 | 41.49991 | 9.09354 | 74 ft | 23 kts | 227° |
| 2026-04-17 16:38 | 41.49884 | 9.09195 | 71 ft | 24 kts | 227° |
| 2026-04-17 16:38 | 41.49761 | 9.09018 | 61 ft | 27 kts | 228° |
| 2026-04-17 16:38 | 41.49628 | 9.08826 | 52 ft | 28 kts | 227° |
| 2026-04-17 16:39 | 41.49517 | 9.08657 | 47 ft | 16 kts | 243° |
| 2026-04-17 16:39 | 41.49460 | 9.08650 | 44 ft | 8 kts | 101° |
| 2026-04-17 16:39 | 41.49496 | 9.08684 | 47 ft | 7 kts | 21° |
| 2026-04-17 16:39 | 41.49539 | 9.08708 | 49 ft | 7 kts | 30° |
| 2026-04-17 16:40 | 41.49562 | 9.08734 | 50 ft | 0 kts | 45° |
| 2026-04-17 16:41 | 41.49643 | 9.08850 | 50 ft | 54 kts | 47° |
| 2026-04-17 16:41 | 41.50094 | 9.09502 | 70 ft | 134 kts | 47° |
| 2026-04-17 16:42 | 41.50889 | 9.10627 | 213 ft | 192 kts | 46° |
| 2026-04-17 16:42 | 41.51826 | 9.12062 | 953 ft | 210 kts | 49° |
| 2026-04-17 16:42 | 41.52594 | 9.13740 | 1844 ft | 217 kts | 66° |
| 2026-04-17 16:42 | 41.53098 | 9.15678 | 2448 ft | 233 kts | 72° |
| 2026-04-17 16:43 | 41.53506 | 9.17821 | 3102 ft | 241 kts | 75° |
| 2026-04-17 16:43 | 41.53925 | 9.20004 | 3828 ft | 243 kts | 73° |
| 2026-04-17 16:43 | 41.54397 | 9.22182 | 4549 ft | 250 kts | 71° |
| 2026-04-17 16:43 | 41.54951 | 9.24480 | 5112 ft | 265 kts | 69° |
| 2026-04-17 16:44 | 41.55563 | 9.26825 | 5962 ft | 269 kts | 69° |
| 2026-04-17 16:44 | 41.56213 | 9.29181 | 6826 ft | 272 kts | 68° |
| 2026-04-17 16:44 | 41.56897 | 9.31563 | 7646 ft | 276 kts | 67° |
| 2026-04-17 16:44 | 41.57606 | 9.33963 | 8447 ft | 280 kts | 67° |
| 2026-04-17 16:45 | 41.58328 | 9.36360 | 9274 ft | 284 kts | 67° |
| 2026-04-17 16:45 | 41.59078 | 9.38816 | 10098 ft | 287 kts | 66° |
| 2026-04-17 16:45 | 41.59853 | 9.41335 | 10583 ft | 303 kts | 66° |
| 2026-04-17 16:45 | 41.60695 | 9.44048 | 10757 ft | 328 kts | 66° |
| 2026-04-17 16:46 | 41.61602 | 9.46964 | 10943 ft | 351 kts | 65° |
| 2026-04-17 16:46 | 41.62566 | 9.50061 | 11246 ft | 368 kts | 65° |
| 2026-04-17 16:46 | 41.63560 | 9.53252 | 11833 ft | 375 kts | 65° |
| 2026-04-17 16:46 | 41.64567 | 9.56492 | 12512 ft | 379 kts | 65° |
| 2026-04-17 16:47 | 41.65585 | 9.59768 | 13190 ft | 383 kts | 65° |
| 2026-04-17 16:47 | 41.66617 | 9.63088 | 13839 ft | 388 kts | 65° |
| 2026-04-17 16:47 | 41.67661 | 9.66451 | 14425 ft | 392 kts | 65° |
| 2026-04-17 16:47 | 41.68708 | 9.69830 | 15053 ft | 395 kts | 65° |
| 2026-04-17 16:48 | 41.69762 | 9.73234 | 15683 ft | 398 kts | 65° |
| 2026-04-17 16:48 | 41.70823 | 9.76667 | 16294 ft | 401 kts | 65° |
| 2026-04-17 16:48 | 41.71895 | 9.80138 | 16885 ft | 404 kts | 65° |
| 2026-04-17 16:48 | 41.72962 | 9.83596 | 17465 ft | 408 kts | 65° |
| 2026-04-17 16:49 | 41.74047 | 9.87120 | 18090 ft | 410 kts | 65° |
| 2026-04-17 16:49 | 41.75135 | 9.90655 | 18613 ft | 413 kts | 65° |
| 2026-04-17 16:49 | 41.76235 | 9.94234 | 19114 ft | 416 kts | 65° |
| 2026-04-17 16:49 | 41.77338 | 9.97830 | 19620 ft | 418 kts | 65° |
| 2026-04-17 16:50 | 41.78446 | 10.01444 | 20129 ft | 421 kts | 65° |
| 2026-04-17 16:50 | 41.79501 | 10.05117 | 20619 ft | 425 kts | 71° |
| 2026-04-17 16:50 | 41.80167 | 10.09000 | 21109 ft | 429 kts | 77° |
| 2026-04-17 16:50 | 41.80687 | 10.12956 | 21588 ft | 432 kts | 78° |
| 2026-04-17 16:51 | 41.81188 | 10.16942 | 22045 ft | 434 kts | 78° |
| 2026-04-17 16:51 | 41.81689 | 10.20947 | 22508 ft | 437 kts | 78° |
| 2026-04-17 16:51 | 41.82195 | 10.24940 | 22957 ft | 439 kts | 78° |
| 2026-04-17 16:51 | 41.82716 | 10.28983 | 23393 ft | 442 kts | 78° |
| 2026-04-17 16:52 | 41.83246 | 10.33058 | 23784 ft | 444 kts | 78° |
| 2026-04-17 16:52 | 41.83784 | 10.37157 | 24124 ft | 447 kts | 78° |
| 2026-04-17 16:52 | 41.84325 | 10.41276 | 24463 ft | 449 kts | 78° |
| 2026-04-17 16:52 | 41.84869 | 10.45416 | 24797 ft | 452 kts | 78° |
| 2026-04-17 16:53 | 41.85415 | 10.49580 | 25133 ft | 454 kts | 78° |
| 2026-04-17 16:53 | 41.85955 | 10.53713 | 25453 ft | 457 kts | 78° |
| 2026-04-17 16:53 | 41.86503 | 10.57927 | 25782 ft | 459 kts | 77° |
| 2026-04-17 16:53 | 41.87053 | 10.62164 | 26119 ft | 460 kts | 77° |
| 2026-04-17 16:54 | 41.87601 | 10.66402 | 26438 ft | 463 kts | 77° |
| 2026-04-17 16:54 | 41.88152 | 10.70672 | 26722 ft | 465 kts | 77° |
| 2026-04-17 16:54 | 41.88704 | 10.74966 | 27006 ft | 467 kts | 77° |
| 2026-04-17 16:54 | 41.89256 | 10.79275 | 27293 ft | 469 kts | 77° |
| 2026-04-17 16:55 | 41.89809 | 10.83602 | 27569 ft | 472 kts | 77° |
| 2026-04-17 16:55 | 41.90356 | 10.87897 | 27805 ft | 474 kts | 77° |
| 2026-04-17 16:55 | 41.90912 | 10.92277 | 28082 ft | 476 kts | 77° |
| 2026-04-17 16:55 | 41.91466 | 10.96660 | 28454 ft | 476 kts | 77° |
| 2026-04-17 16:56 | 41.92018 | 11.01043 | 28898 ft | 474 kts | 77° |
| 2026-04-17 16:56 | 41.92566 | 11.05405 | 29328 ft | 472 kts | 77° |
| 2026-04-17 16:56 | 41.93111 | 11.09757 | 29704 ft | 472 kts | 77° |
| 2026-04-17 16:56 | 41.93649 | 11.14066 | 30056 ft | 473 kts | 77° |
| 2026-04-17 16:57 | 41.94192 | 11.18425 | 30393 ft | 472 kts | 77° |
| 2026-04-17 16:57 | 41.94730 | 11.22761 | 30779 ft | 469 kts | 77° |
| 2026-04-17 16:57 | 41.95264 | 11.27077 | 31156 ft | 467 kts | 77° |
| 2026-04-17 16:57 | 41.95444 | 11.28537 | 31284 ft | 467 kts | 77° |
| 2026-04-17 16:58 | 41.95970 | 11.32811 | 31645 ft | 465 kts | 77° |
| 2026-04-17 16:58 | 41.96496 | 11.37092 | 32039 ft | 463 kts | 77° |
| 2026-04-17 16:58 | 41.97011 | 11.41296 | 32379 ft | 461 kts | 77° |
| 2026-04-17 16:58 | 41.97531 | 11.45554 | 32677 ft | 461 kts | 77° |
| 2026-04-17 16:59 | 41.98055 | 11.49863 | 32994 ft | 460 kts | 77° |
| 2026-04-17 16:59 | 41.98563 | 11.54049 | 33331 ft | 459 kts | 77° |
| 2026-04-17 16:59 | 41.99074 | 11.58275 | 33675 ft | 457 kts | 77° |
| 2026-04-17 16:59 | 41.99581 | 11.62486 | 33979 ft | 456 kts | 77° |
| 2026-04-17 17:00 | 42.00088 | 11.66704 | 34226 ft | 456 kts | 77° |
| 2026-04-17 17:00 | 42.00593 | 11.70921 | 34495 ft | 456 kts | 77° |
| 2026-04-17 17:00 | 42.01096 | 11.75132 | 34765 ft | 456 kts | 77° |
| 2026-04-17 17:00 | 42.01597 | 11.79345 | 35015 ft | 455 kts | 77° |
| 2026-04-17 17:01 | 42.02593 | 11.87742 | 35146 ft | 459 kts | 77° |
| 2026-04-17 17:01 | 42.03584 | 11.96176 | 35189 ft | 455 kts | 77° |
| 2026-04-17 17:02 | 42.04564 | 12.04574 | 35243 ft | 452 kts | 77° |
| 2026-04-17 17:02 | 42.05535 | 12.12938 | 35242 ft | 451 kts | 77° |
| 2026-04-17 17:03 | 42.06493 | 12.21239 | 34995 ft | 450 kts | 77° |
| 2026-04-17 17:03 | 42.07449 | 12.29581 | 34995 ft | 450 kts | 78° |
| 2026-04-17 17:04 | 42.08400 | 12.37927 | 34998 ft | 451 kts | 78° |
| 2026-04-17 17:04 | 42.09347 | 12.46300 | 35000 ft | 453 kts | 78° |
| 2026-04-17 17:05 | 42.10286 | 12.54662 | 35000 ft | 455 kts | 78° |
| 2026-04-17 17:05 | 42.11228 | 12.63107 | 34993 ft | 457 kts | 78° |
| 2026-04-17 17:06 | 42.12168 | 12.71596 | 34995 ft | 458 kts | 78° |
| 2026-04-17 17:06 | 42.13103 | 12.80100 | 35006 ft | 459 kts | 78° |
| 2026-04-17 17:07 | 42.14034 | 12.88623 | 35007 ft | 460 kts | 78° |
| 2026-04-17 17:07 | 42.14958 | 12.97147 | 35011 ft | 459 kts | 78° |
| 2026-04-17 17:08 | 42.15867 | 13.05587 | 35025 ft | 458 kts | 78° |
| 2026-04-17 17:08 | 42.16785 | 13.14086 | 35048 ft | 457 kts | 78° |
| 2026-04-17 17:09 | 42.17852 | 13.22536 | 35059 ft | 456 kts | 77° |
| 2026-04-17 17:09 | 42.18974 | 13.30960 | 35043 ft | 456 kts | 77° |
| 2026-04-17 17:10 | 42.19889 | 13.37942 | 35069 ft | 455 kts | 77° |
| 2026-04-17 17:10 | 42.20972 | 13.46371 | 35070 ft | 454 kts | 77° |
| 2026-04-17 17:11 | 42.22038 | 13.54782 | 35070 ft | 455 kts | 77° |
| 2026-04-17 17:11 | 42.23090 | 13.63141 | 35084 ft | 454 kts | 77° |
| 2026-04-17 17:12 | 42.24143 | 13.71557 | 35075 ft | 455 kts | 77° |
| 2026-04-17 17:12 | 42.25191 | 13.79981 | 35087 ft | 455 kts | 77° |
| 2026-04-17 17:13 | 42.26235 | 13.88419 | 35092 ft | 455 kts | 77° |
| 2026-04-17 17:13 | 42.27273 | 13.96867 | 35064 ft | 456 kts | 77° |
| 2026-04-17 17:14 | 42.28298 | 14.05267 | 35084 ft | 456 kts | 77° |
| 2026-04-17 17:15 | 42.29835 | 14.17956 | 35080 ft | 457 kts | 77° |
| 2026-04-17 17:15 | 42.30855 | 14.26444 | 35079 ft | 458 kts | 78° |
| 2026-04-17 17:16 | 42.31870 | 14.34947 | 35075 ft | 459 kts | 78° |
| 2026-04-17 17:16 | 42.32881 | 14.43472 | 35061 ft | 459 kts | 78° |
| 2026-04-17 17:17 | 42.33880 | 14.51952 | 35064 ft | 459 kts | 78° |
| 2026-04-17 17:17 | 42.34877 | 14.60471 | 35058 ft | 459 kts | 78° |
| 2026-04-17 17:18 | 42.35869 | 14.69004 | 35048 ft | 459 kts | 78° |
| 2026-04-17 17:18 | 42.36855 | 14.77542 | 35042 ft | 459 kts | 78° |
| 2026-04-17 17:19 | 42.37833 | 14.86068 | 35053 ft | 458 kts | 78° |
| 2026-04-17 17:19 | 42.38805 | 14.94592 | 35047 ft | 458 kts | 78° |
| 2026-04-17 17:20 | 42.39764 | 15.03066 | 35041 ft | 458 kts | 78° |
| 2026-04-17 17:20 | 42.40723 | 15.11594 | 35043 ft | 459 kts | 78° |
| 2026-04-17 17:21 | 42.41676 | 15.20134 | 35045 ft | 459 kts | 78° |
| 2026-04-17 17:21 | 42.42624 | 15.28687 | 35036 ft | 459 kts | 78° |
| 2026-04-17 17:22 | 42.43566 | 15.37243 | 35030 ft | 460 kts | 78° |
| 2026-04-17 17:22 | 42.44503 | 15.45820 | 35032 ft | 460 kts | 78° |
| 2026-04-17 17:23 | 42.45436 | 15.54421 | 35019 ft | 461 kts | 79° |
| 2026-04-17 17:23 | 42.46355 | 15.62953 | 35026 ft | 461 kts | 79° |
| 2026-04-17 17:24 | 42.47276 | 15.71555 | 35025 ft | 461 kts | 79° |
| 2026-04-17 17:24 | 42.48191 | 15.80178 | 35016 ft | 461 kts | 79° |
| 2026-04-17 17:25 | 42.49098 | 15.88778 | 35014 ft | 461 kts | 79° |
| 2026-04-17 17:25 | 42.50000 | 15.97399 | 35010 ft | 461 kts | 79° |
| 2026-04-17 17:26 | 42.50893 | 16.05966 | 35016 ft | 461 kts | 78° |
| 2026-04-17 17:26 | 42.52013 | 16.14512 | 35006 ft | 460 kts | 76° |
| 2026-04-17 17:27 | 42.53257 | 16.23042 | 34994 ft | 460 kts | 76° |
| 2026-04-17 17:27 | 42.54477 | 16.31581 | 34998 ft | 460 kts | 76° |
| 2026-04-17 17:28 | 42.55655 | 16.40075 | 35000 ft | 461 kts | 77° |
| 2026-04-17 17:28 | 42.56823 | 16.48634 | 34997 ft | 461 kts | 77° |
| 2026-04-17 17:29 | 42.57982 | 16.57190 | 34990 ft | 461 kts | 77° |
| 2026-04-17 17:29 | 42.59137 | 16.65756 | 34985 ft | 461 kts | 77° |
| 2026-04-17 17:30 | 42.60278 | 16.74266 | 35001 ft | 461 kts | 77° |
| 2026-04-17 17:30 | 42.61420 | 16.82828 | 34991 ft | 461 kts | 77° |
| 2026-04-17 17:31 | 42.62555 | 16.91395 | 34985 ft | 461 kts | 77° |
| 2026-04-17 17:31 | 42.63686 | 16.99981 | 34982 ft | 461 kts | 77° |
| 2026-04-17 17:32 | 42.64809 | 17.08561 | 34988 ft | 461 kts | 77° |
| 2026-04-17 17:32 | 42.65921 | 17.17105 | 34984 ft | 461 kts | 77° |
| 2026-04-17 17:33 | 42.67033 | 17.25698 | 34972 ft | 461 kts | 77° |
| 2026-04-17 17:33 | 42.68137 | 17.34289 | 34975 ft | 461 kts | 77° |
| 2026-04-17 17:34 | 42.69236 | 17.42891 | 34978 ft | 462 kts | 77° |
| 2026-04-17 17:34 | 42.70330 | 17.51500 | 34967 ft | 462 kts | 77° |
| 2026-04-17 17:35 | 42.71410 | 17.60066 | 34967 ft | 463 kts | 77° |
| 2026-04-17 17:35 | 42.72494 | 17.68703 | 34977 ft | 462 kts | 77° |
| 2026-04-17 17:36 | 42.73570 | 17.77345 | 34970 ft | 463 kts | 77° |
| 2026-04-17 17:36 | 42.74641 | 17.85994 | 34972 ft | 464 kts | 77° |
| 2026-04-17 17:37 | 42.75707 | 17.94660 | 34964 ft | 465 kts | 78° |
| 2026-04-17 17:37 | 42.76769 | 18.03353 | 34961 ft | 465 kts | 78° |
| 2026-04-17 17:38 | 42.77817 | 18.11987 | 34969 ft | 465 kts | 77° |
| 2026-04-17 17:38 | 42.78866 | 18.20685 | 34952 ft | 465 kts | 77° |
| 2026-04-17 17:39 | 42.79908 | 18.29378 | 34961 ft | 465 kts | 77° |
| 2026-04-17 17:39 | 42.80944 | 18.38088 | 34975 ft | 465 kts | 77° |
| 2026-04-17 17:40 | 42.81974 | 18.46794 | 34990 ft | 465 kts | 78° |
| 2026-04-17 17:40 | 42.82990 | 18.55450 | 34993 ft | 466 kts | 78° |
| 2026-04-17 17:41 | 42.84010 | 18.64192 | 34990 ft | 466 kts | 78° |
| 2026-04-17 17:41 | 42.85019 | 18.72907 | 35002 ft | 466 kts | 78° |
| 2026-04-17 17:42 | 42.86022 | 18.81628 | 35009 ft | 466 kts | 77° |
| 2026-04-17 17:42 | 42.87021 | 18.90368 | 35006 ft | 466 kts | 78° |
| 2026-04-17 17:43 | 42.88007 | 18.99058 | 35023 ft | 466 kts | 78° |
| 2026-04-17 17:43 | 42.88991 | 19.07796 | 35034 ft | 466 kts | 78° |
| 2026-04-17 17:44 | 42.89972 | 19.16562 | 35038 ft | 467 kts | 78° |
| 2026-04-17 17:44 | 42.90946 | 19.25333 | 35048 ft | 467 kts | 78° |
| 2026-04-17 17:45 | 42.91913 | 19.34109 | 35038 ft | 468 kts | 78° |
| 2026-04-17 17:45 | 42.92876 | 19.42900 | 35049 ft | 468 kts | 78° |
| 2026-04-17 17:46 | 42.93825 | 19.51631 | 35058 ft | 468 kts | 78° |